Time,TemperatureF,DewpointF,PressureIn,WindDirection,WindDirectionDegrees,WindSpeedMPH,WindSpeedGustMPH,Humidity,HourlyPrecipIn,Conditions,Clouds,dailyrainin,SoftwareType,DateUTC
2013-05-20 00:03:00,63.6,61.6,29.63,SSW,197,0.0,0.0,93,0.00,RA,SKC,0.00,WeatherDisplay:10.37,2013-05-20 05:03:00,
2013-05-20 00:08:00,63.6,61.6,29.64,SSW,200,0.0,2.0,93,0.00,CLR,SKC,0.00,WeatherDisplay:10.37,2013-05-20 05:08:00,
2013-05-20 00:18:00,63.9,62.1,29.64,SSE,163,1.0,3.0,94,0.00,CLR,SKC,0.00,WeatherDisplay:10.37,2013-05-20 05:18:00,
2013-05-20 00:23:00,64.0,62.2,29.66,SSE,156,1.0,5.0,94,0.00,CLR,SKC,0.00,WeatherDisplay:10.37,2013-05-20 05:23:00,
2013-05-20 00:28:00,64.0,62.3,29.66,South,181,2.0,3.0,94,0.00,CLR,SKC,0.00,WeatherDisplay:10.37,2013-05-20 05:28:00,
2013-05-20 00:38:00,64.2,62.5,29.63,NNW,329,3.0,7.0,94,0.00,CLR,SKC,0.00,WeatherDisplay:10.37,2013-05-20 05:38:00,
2013-05-20 00:48:00,64.1,62.1,29.64,SE,145,2.0,6.0,93,0.00,CLR,SKC,0.00,WeatherDisplay:10.37,2013-05-20 05:48:00,
2013-05-20 00:53:00,64.4,62.0,29.64,SSE,147,2.0,8.0,92,0.00,CLR,SKC,0.00,WeatherDisplay:10.37,2013-05-20 05:53:00,
2013-05-20 00:58:00,64.4,61.7,29.61,South,187,5.0,10.0,91,0.00,CLR,SKC,0.00,WeatherDisplay:10.37,2013-05-20 05:58:00,
2013-05-20 01:03:00,64.5,61.8,29.64,SW,234,0.0,5.0,91,0.00,CLR,SKC,0.00,WeatherDisplay:10.37,2013-05-20 06:03:00,
2013-05-20 01:08:00,64.4,61.7,29.62,West,266,0.0,2.0,91,0.00,CLR,SKC,0.00,WeatherDisplay:10.37,2013-05-20 06:08:00,
2013-05-20 01:18:00,63.9,61.6,29.59,WSW,248,2.0,3.0,92,0.01,RA,SKC,0.01,WeatherDisplay:10.37,2013-05-20 06:18:00,
2013-05-20 01:28:00,63.7,61.6,29.60,West,272,0.0,2.0,93,0.00,CLR,SKC,0.01,WeatherDisplay:10.37,2013-05-20 06:28:00,
2013-05-20 01:38:00,63.4,61.3,29.60,South,185,0.0,2.0,93,0.00,CLR,SKC,0.01,WeatherDisplay:10.37,2013-05-20 06:38:00,
2013-05-20 01:43:00,63.2,61.2,29.60,South,174,0.0,2.0,93,0.00,CLR,SKC,0.01,WeatherDisplay:10.37,2013-05-20 06:43:00,
2013-05-20 01:48:00,63.1,61.4,29.60,SSE,151,0.0,2.0,94,0.00,CLR,SKC,0.01,WeatherDisplay:10.37,2013-05-20 06:48:00,
2013-05-20 01:58:00,62.8,61.1,29.60,SE,139,0.0,2.0,94,0.00,CLR,SKC,0.01,WeatherDisplay:10.37,2013-05-20 06:58:00,
2013-05-20 02:03:00,62.7,61.0,29.60,SE,139,0.0,0.0,94,0.00,CLR,SKC,0.01,WeatherDisplay:10.37,2013-05-20 07:03:00,
2013-05-20 02:08:00,62.5,60.8,29.61,SSE,160,1.0,7.0,94,0.00,CLR,SKC,0.01,WeatherDisplay:10.37,2013-05-20 07:08:00,
2013-05-20 02:18:00,62.8,60.8,29.60,South,172,0.0,5.0,93,0.00,CLR,SKC,0.01,WeatherDisplay:10.37,2013-05-20 07:18:00,
2013-05-20 02:28:00,62.7,60.4,29.62,South,181,0.0,3.0,92,0.00,CLR,SKC,0.01,WeatherDisplay:10.37,2013-05-20 07:28:00,
2013-05-20 02:38:00,62.6,60.0,29.62,South,178,0.0,2.0,91,0.00,CLR,SKC,0.01,WeatherDisplay:10.37,2013-05-20 07:38:00,
2013-05-20 02:43:00,62.5,60.1,29.62,South,183,0.0,3.0,92,0.00,CLR,SKC,0.01,WeatherDisplay:10.37,2013-05-20 07:43:00,
2013-05-20 02:48:00,62.3,60.0,29.62,South,177,1.0,3.0,92,0.00,CLR,SKC,0.01,WeatherDisplay:10.37,2013-05-20 07:48:00,
2013-05-20 02:53:00,62.4,59.7,29.62,South,173,2.0,8.0,91,0.00,CLR,SKC,0.01,WeatherDisplay:10.37,2013-05-20 07:53:00,
2013-05-20 02:58:00,62.5,59.9,29.63,South,185,3.0,10.0,91,0.00,CLR,SKC,0.01,WeatherDisplay:10.37,2013-05-20 07:58:00,
2013-05-20 03:03:00,62.7,59.7,29.64,South,186,7.0,13.0,90,0.00,CLR,SKC,0.01,WeatherDisplay:10.37,2013-05-20 08:03:00,
2013-05-20 03:08:00,62.8,59.8,29.64,South,184,2.0,10.0,90,0.00,CLR,SKC,0.01,WeatherDisplay:10.37,2013-05-20 08:08:00,
2013-05-20 03:13:00,62.9,59.9,29.64,SSE,166,3.0,15.0,90,0.00,CLR,SKC,0.01,WeatherDisplay:10.37,2013-05-20 08:13:00,
2013-05-20 03:18:00,62.8,59.8,29.64,SSE,154,9.0,18.0,90,0.00,CLR,SKC,0.01,WeatherDisplay:10.37,2013-05-20 08:18:00,
2013-05-20 03:23:00,62.7,59.8,29.64,South,184,6.0,13.0,90,0.00,CLR,SKC,0.01,WeatherDisplay:10.37,2013-05-20 08:23:00,
2013-05-20 03:28:00,62.6,59.6,29.64,South,186,3.0,8.0,90,0.00,CLR,SKC,0.01,WeatherDisplay:10.37,2013-05-20 08:28:00,
2013-05-20 03:38:00,62.5,59.9,29.65,SSE,164,2.0,12.0,91,0.00,CLR,SKC,0.01,WeatherDisplay:10.37,2013-05-20 08:38:00,
2013-05-20 03:48:00,62.7,60.1,29.65,South,191,7.0,13.0,91,0.00,CLR,SKC,0.01,WeatherDisplay:10.37,2013-05-20 08:48:00,
2013-05-20 03:58:00,62.9,59.9,29.66,South,185,8.0,16.0,90,0.00,CLR,SKC,0.01,WeatherDisplay:10.37,2013-05-20 08:58:00,
2013-05-20 04:03:00,63.0,60.0,29.64,South,191,8.0,16.0,90,0.00,CLR,SKC,0.01,WeatherDisplay:10.37,2013-05-20 09:03:00,
2013-05-20 04:08:00,63.0,60.0,29.65,SSW,206,6.0,10.0,90,0.00,CLR,SKC,0.01,WeatherDisplay:10.37,2013-05-20 09:08:00,
2013-05-20 04:18:00,62.9,60.0,29.64,SSW,192,1.0,13.0,90,0.00,CLR,SKC,0.01,WeatherDisplay:10.37,2013-05-20 09:18:00,
2013-05-20 04:28:00,62.9,59.9,29.65,South,191,9.0,16.0,90,0.00,CLR,SKC,0.01,WeatherDisplay:10.37,2013-05-20 09:28:00,
2013-05-20 04:38:00,63.0,60.0,29.64,SSW,194,12.0,18.0,90,0.00,CLR,SKC,0.01,WeatherDisplay:10.37,2013-05-20 09:38:00,
2013-05-20 04:43:00,63.0,59.7,29.64,SSW,197,6.0,13.0,89,0.00,CLR,SKC,0.01,WeatherDisplay:10.37,2013-05-20 09:43:00,
2013-05-20 04:48:00,62.9,59.6,29.63,SSW,194,6.0,10.0,89,0.00,CLR,SKC,0.01,WeatherDisplay:10.37,2013-05-20 09:48:00,
2013-05-20 04:53:00,62.9,59.6,29.64,SSW,208,8.0,13.0,89,0.00,CLR,SKC,0.01,WeatherDisplay:10.37,2013-05-20 09:53:00,
2013-05-20 04:58:00,62.8,59.5,29.63,South,176,8.0,13.0,89,0.00,CLR,SKC,0.01,WeatherDisplay:10.37,2013-05-20 09:58:00,
2013-05-20 05:03:00,62.8,59.8,29.64,SSE,168,6.0,13.0,90,0.00,CLR,SKC,0.01,WeatherDisplay:10.37,2013-05-20 10:03:00,
2013-05-20 05:08:00,62.7,59.7,29.64,SSE,168,5.0,12.0,90,0.00,CLR,SKC,0.01,WeatherDisplay:10.37,2013-05-20 10:08:00,
2013-05-20 05:18:00,62.5,59.8,29.64,SW,234,2.0,8.0,91,0.00,CLR,SKC,0.01,WeatherDisplay:10.37,2013-05-20 10:18:00,
2013-05-20 05:23:00,62.4,59.8,29.65,SSW,211,5.0,13.0,91,0.00,CLR,SKC,0.01,WeatherDisplay:10.37,2013-05-20 10:23:00,
2013-05-20 05:28:00,62.4,60.1,29.65,South,190,2.0,8.0,92,0.00,CLR,SKC,0.01,WeatherDisplay:10.37,2013-05-20 10:28:00,
2013-05-20 05:33:00,62.3,60.0,29.66,SW,215,2.0,6.0,92,0.00,CLR,SKC,0.01,WeatherDisplay:10.37,2013-05-20 10:33:00,
2013-05-20 05:38:00,62.3,60.0,29.65,SW,226,1.0,7.0,92,0.00,CLR,SKC,0.01,WeatherDisplay:10.37,2013-05-20 10:38:00,
2013-05-20 05:48:00,62.2,60.2,29.65,SW,227,1.0,7.0,93,0.00,CLR,SKC,0.01,WeatherDisplay:10.37,2013-05-20 10:48:00,
2013-05-20 05:58:00,62.1,60.1,29.66,SW,230,1.0,5.0,93,0.00,CLR,SKC,0.01,WeatherDisplay:10.37,2013-05-20 10:58:00,
2013-05-20 06:03:00,62.0,60.0,29.66,SW,236,2.0,5.0,93,0.00,CLR,SKC,0.01,WeatherDisplay:10.37,2013-05-20 11:03:00,
2013-05-20 06:08:00,61.9,59.9,29.66,SW,233,0.0,2.0,93,0.00,CLR,SKC,0.01,WeatherDisplay:10.37,2013-05-20 11:08:00,
2013-05-20 06:13:00,61.8,60.1,29.66,SW,222,3.0,10.0,94,0.00,CLR,SKC,0.01,WeatherDisplay:10.37,2013-05-20 11:13:00,
2013-05-20 06:18:00,61.7,60.0,29.67,SSW,208,1.0,5.0,94,0.00,CLR,SKC,0.01,WeatherDisplay:10.37,2013-05-20 11:18:00,
2013-05-20 06:23:00,61.6,59.9,29.67,South,191,5.0,10.0,94,0.00,CLR,SKC,0.01,WeatherDisplay:10.37,2013-05-20 11:23:00,
2013-05-20 06:28:00,61.6,59.9,29.68,South,179,1.0,7.0,94,0.00,CLR,SKC,0.01,WeatherDisplay:10.37,2013-05-20 11:28:00,
2013-05-20 06:33:00,61.5,60.1,29.68,SSW,196,2.0,8.0,95,0.00,CLR,SKC,0.01,WeatherDisplay:10.37,2013-05-20 11:33:00,
2013-05-20 06:38:00,61.4,60.0,29.68,SSW,195,0.0,7.0,95,0.00,CLR,SKC,0.01,WeatherDisplay:10.37,2013-05-20 11:38:00,
2013-05-20 06:48:00,61.3,59.9,29.68,SW,217,5.0,11.0,95,0.00,CLR,SKC,0.01,WeatherDisplay:10.37,2013-05-20 11:48:00,
2013-05-20 06:58:00,61.5,60.1,29.68,South,181,5.0,12.0,95,0.00,CLR,SKC,0.01,WeatherDisplay:10.37,2013-05-20 11:58:00,
2013-05-20 07:08:00,61.8,60.4,29.68,South,180,3.0,10.0,95,0.00,CLR,SKC,0.01,WeatherDisplay:10.37,2013-05-20 12:08:00,
2013-05-20 07:18:00,62.1,60.6,29.69,SW,220,3.0,16.0,95,0.00,CLR,SKC,0.01,WeatherDisplay:10.37,2013-05-20 12:18:00,
2013-05-20 07:23:00,62.1,60.7,29.68,SW,221,6.0,12.0,95,0.00,CLR,SKC,0.01,WeatherDisplay:10.37,2013-05-20 12:23:00,
2013-05-20 07:28:00,62.0,60.6,29.69,SW,224,3.0,13.0,95,0.00,CLR,SKC,0.01,WeatherDisplay:10.37,2013-05-20 12:28:00,
2013-05-20 07:33:00,62.0,60.6,29.69,SW,220,3.0,13.0,95,0.00,CLR,SKC,0.01,WeatherDisplay:10.37,2013-05-20 12:33:00,
2013-05-20 07:38:00,62.0,60.6,29.69,SW,217,5.0,13.0,95,0.00,CLR,SKC,0.01,WeatherDisplay:10.37,2013-05-20 12:38:00,
2013-05-20 07:48:00,62.6,61.1,29.69,SSW,201,8.0,21.0,95,0.00,CLR,SKC,0.01,WeatherDisplay:10.37,2013-05-20 12:48:00,
2013-05-20 07:53:00,62.9,61.2,29.69,SSW,194,7.0,13.0,94,0.00,CLR,SKC,0.01,WeatherDisplay:10.37,2013-05-20 12:53:00,
2013-05-20 07:58:00,63.3,61.6,29.68,SSW,205,8.0,12.0,94,0.00,CLR,SKC,0.01,WeatherDisplay:10.37,2013-05-20 12:58:00,
2013-05-20 08:08:00,64.0,62.0,29.68,SSW,203,5.0,12.0,93,0.00,CLR,SKC,0.01,WeatherDisplay:10.37,2013-05-20 13:08:00,
2013-05-20 08:18:00,65.0,62.6,29.69,SSW,213,5.0,8.0,92,0.00,CLR,SKC,0.01,WeatherDisplay:10.37,2013-05-20 13:18:00,
2013-05-20 08:23:00,65.5,62.5,29.69,SW,216,1.0,6.0,90,0.00,CLR,SKC,0.01,WeatherDisplay:10.37,2013-05-20 13:23:00,
2013-05-20 08:28:00,66.1,63.1,29.69,WSW,247,2.0,8.0,90,0.00,CLR,SKC,0.01,WeatherDisplay:10.37,2013-05-20 13:28:00,
2013-05-20 08:33:00,66.8,63.1,29.68,West,260,2.0,10.0,88,0.00,CLR,SKC,0.01,WeatherDisplay:10.37,2013-05-20 13:33:00,
2013-05-20 08:38:00,66.6,62.6,29.69,West,266,3.0,10.0,87,0.00,CLR,SKC,0.01,WeatherDisplay:10.37,2013-05-20 13:38:00,
2013-05-20 08:48:00,66.0,62.3,29.69,SW,223,1.0,8.0,88,0.00,CLR,SKC,0.01,WeatherDisplay:10.37,2013-05-20 13:48:00,
2013-05-20 08:58:00,65.2,61.9,29.69,WSW,238,1.0,10.0,89,0.00,CLR,SKC,0.01,WeatherDisplay:10.37,2013-05-20 13:58:00,
2013-05-20 09:03:00,65.0,62.0,29.69,SW,225,1.0,7.0,90,0.00,CLR,SKC,0.01,WeatherDisplay:10.37,2013-05-20 14:03:00,
2013-05-20 09:08:00,64.8,61.8,29.69,SSW,200,0.0,3.0,90,0.00,CLR,SKC,0.01,WeatherDisplay:10.37,2013-05-20 14:08:00,
2013-05-20 09:13:00,64.7,62.0,29.69,SSE,166,3.0,7.0,91,0.00,CLR,SKC,0.01,WeatherDisplay:10.37,2013-05-20 14:13:00,
2013-05-20 09:18:00,64.6,61.9,29.69,South,176,1.0,5.0,91,0.00,CLR,SKC,0.01,WeatherDisplay:10.37,2013-05-20 14:18:00,
2013-05-20 09:28:00,64.4,62.0,29.69,SSE,162,0.0,0.0,92,0.00,CLR,SKC,0.01,WeatherDisplay:10.37,2013-05-20 14:28:00,
2013-05-20 09:38:00,64.2,61.8,29.69,SSW,203,0.0,2.0,92,0.00,CLR,SKC,0.01,WeatherDisplay:10.37,2013-05-20 14:38:00,
2013-05-20 09:43:00,64.2,61.8,29.71,SSW,209,2.0,7.0,92,0.00,CLR,SKC,0.01,WeatherDisplay:10.37,2013-05-20 14:43:00,
2013-05-20 09:48:00,64.3,61.9,29.71,South,189,6.0,10.0,92,0.00,CLR,SKC,0.01,WeatherDisplay:10.37,2013-05-20 14:48:00,
2013-05-20 09:58:00,64.6,62.2,29.70,SSW,199,6.0,18.0,92,0.00,CLR,SKC,0.01,WeatherDisplay:10.37,2013-05-20 14:58:00,
2013-05-20 10:03:00,64.8,62.4,29.70,SSW,208,5.0,12.0,92,0.00,CLR,SKC,0.01,WeatherDisplay:10.37,2013-05-20 15:03:00,
2013-05-20 10:08:00,65.2,62.8,29.70,South,184,6.0,12.0,92,0.00,CLR,SKC,0.01,WeatherDisplay:10.37,2013-05-20 15:08:00,
2013-05-20 10:18:00,65.9,63.2,29.70,SSW,197,3.0,13.0,91,0.00,CLR,SKC,0.01,WeatherDisplay:10.37,2013-05-20 15:18:00,
2013-05-20 10:23:00,66.0,63.0,29.70,South,187,5.0,12.0,90,0.00,CLR,SKC,0.01,WeatherDisplay:10.37,2013-05-20 15:23:00,
2013-05-20 10:28:00,66.1,63.1,29.70,SSW,204,3.0,10.0,90,0.00,CLR,SKC,0.01,WeatherDisplay:10.37,2013-05-20 15:28:00,
2013-05-20 10:33:00,66.4,63.3,29.70,SSW,210,3.0,13.0,90,0.00,CLR,SKC,0.01,WeatherDisplay:10.37,2013-05-20 15:33:00,
2013-05-20 10:38:00,67.3,64.0,29.69,SW,215,5.0,9.0,89,0.00,CLR,SKC,0.01,WeatherDisplay:10.37,2013-05-20 15:38:00,
2013-05-20 10:48:00,69.3,64.6,29.70,SW,215,7.0,12.0,85,0.00,CLR,SKC,0.01,WeatherDisplay:10.37,2013-05-20 15:48:00,
2013-05-20 10:58:00,70.6,65.2,29.71,SSW,199,3.0,10.0,83,0.00,CLR,SKC,0.01,WeatherDisplay:10.37,2013-05-20 15:58:00,
2013-05-20 11:03:00,71.2,64.7,29.71,SW,232,8.0,16.0,80,0.00,CLR,SKC,0.01,WeatherDisplay:10.37,2013-05-20 16:03:00,
2013-05-20 11:08:00,71.5,64.3,29.71,SW,217,9.0,18.0,78,0.00,CLR,SKC,0.01,WeatherDisplay:10.37,2013-05-20 16:08:00,
2013-05-20 11:18:00,73.0,65.0,29.71,SW,235,6.0,11.0,76,0.00,CLR,SKC,0.01,WeatherDisplay:10.37,2013-05-20 16:18:00,
2013-05-20 11:28:00,73.1,64.3,29.72,SW,230,6.0,13.0,74,0.00,CLR,SKC,0.01,WeatherDisplay:10.37,2013-05-20 16:28:00,
2013-05-20 11:38:00,74.2,65.0,29.71,WSW,238,7.0,18.0,73,0.00,CLR,SKC,0.01,WeatherDisplay:10.37,2013-05-20 16:38:00,
2013-05-20 11:48:00,74.9,65.3,29.71,SW,222,5.0,22.0,72,0.00,CLR,SKC,0.01,WeatherDisplay:10.37,2013-05-20 16:48:00,
2013-05-20 11:58:00,72.8,63.7,29.71,SW,229,6.0,18.0,73,0.00,CLR,SKC,0.01,WeatherDisplay:10.37,2013-05-20 16:58:00,
2013-05-20 12:03:00,72.4,63.7,29.71,WSW,250,3.0,13.0,74,0.00,CLR,SKC,0.01,WeatherDisplay:10.37,2013-05-20 17:03:00,
2013-05-20 12:08:00,72.4,64.0,29.71,SW,219,8.0,18.0,75,0.00,CLR,SKC,0.01,WeatherDisplay:10.37,2013-05-20 17:08:00,
2013-05-20 12:18:00,72.2,63.9,29.71,South,188,13.0,20.0,75,0.00,CLR,SKC,0.01,WeatherDisplay:10.37,2013-05-20 17:18:00,
2013-05-20 12:23:00,72.2,64.6,29.71,SSW,198,6.0,13.0,77,0.00,CLR,SKC,0.01,WeatherDisplay:10.37,2013-05-20 17:23:00,
2013-05-20 12:28:00,72.3,64.3,29.71,SSW,197,5.0,14.0,76,0.00,CLR,SKC,0.01,WeatherDisplay:10.37,2013-05-20 17:28:00,
2013-05-20 12:38:00,71.6,63.6,29.71,South,187,2.0,8.0,76,0.00,CLR,SKC,0.01,WeatherDisplay:10.37,2013-05-20 17:38:00,
2013-05-20 12:43:00,71.4,63.8,29.71,South,190,9.0,18.0,77,0.00,CLR,SKC,0.01,WeatherDisplay:10.37,2013-05-20 17:43:00,
2013-05-20 12:48:00,71.2,63.6,29.71,South,177,3.0,13.0,77,0.00,CLR,SKC,0.01,WeatherDisplay:10.37,2013-05-20 17:48:00,
2013-05-20 12:58:00,70.7,63.5,29.71,SSE,160,6.0,12.0,78,0.00,CLR,SKC,0.01,WeatherDisplay:10.37,2013-05-20 17:58:00,
2013-05-20 13:03:00,70.5,63.7,29.71,South,182,5.0,11.0,79,0.00,CLR,SKC,0.01,WeatherDisplay:10.37,2013-05-20 18:03:00,
2013-05-20 13:08:00,70.3,63.2,29.71,SSE,163,6.0,16.0,78,0.00,CLR,SKC,0.01,WeatherDisplay:10.37,2013-05-20 18:08:00,
2013-05-20 13:13:00,70.3,63.5,29.71,South,178,5.0,10.0,79,0.00,CLR,SKC,0.01,WeatherDisplay:10.37,2013-05-20 18:13:00,
2013-05-20 13:18:00,70.4,63.6,29.71,South,187,6.0,10.0,79,0.00,CLR,SKC,0.01,WeatherDisplay:10.37,2013-05-20 18:18:00,
2013-05-20 13:28:00,70.3,64.2,29.71,SSE,158,3.0,5.0,81,0.00,CLR,SKC,0.01,WeatherDisplay:10.37,2013-05-20 18:28:00,
2013-05-20 13:38:00,70.7,64.5,29.71,South,184,5.0,12.0,81,0.00,CLR,SKC,0.01,WeatherDisplay:10.37,2013-05-20 18:38:00,
2013-05-20 13:43:00,71.0,64.9,29.70,SSE,157,1.0,5.0,81,0.00,CLR,SKC,0.01,WeatherDisplay:10.37,2013-05-20 18:43:00,
2013-05-20 13:48:00,71.4,64.9,29.70,South,176,1.0,6.0,80,0.00,CLR,SKC,0.01,WeatherDisplay:10.37,2013-05-20 18:48:00,
2013-05-20 13:53:00,71.9,65.4,29.70,SW,214,1.0,5.0,80,0.00,CLR,SKC,0.01,WeatherDisplay:10.37,2013-05-20 18:53:00,
2013-05-20 13:58:00,72.3,65.4,29.70,SW,225,5.0,12.0,79,0.00,CLR,SKC,0.01,WeatherDisplay:10.37,2013-05-20 18:58:00,
2013-05-20 14:03:00,72.4,65.2,29.69,SSW,204,3.0,11.0,78,0.00,CLR,SKC,0.01,WeatherDisplay:10.37,2013-05-20 19:03:00,
2013-05-20 14:08:00,72.6,65.7,29.69,South,173,6.0,10.0,79,0.00,CLR,SKC,0.01,WeatherDisplay:10.37,2013-05-20 19:08:00,
2013-05-20 14:18:00,73.8,66.5,29.68,South,174,5.0,8.0,78,0.00,CLR,SKC,0.01,WeatherDisplay:10.37,2013-05-20 19:18:00,
2013-05-20 14:28:00,74.5,66.5,29.68,South,171,5.0,11.0,76,0.00,CLR,SKC,0.01,WeatherDisplay:10.37,2013-05-20 19:28:00,
2013-05-20 14:38:00,74.0,66.7,29.68,South,186,0.0,9.0,78,0.00,CLR,SKC,0.01,WeatherDisplay:10.37,2013-05-20 19:38:00,
2013-05-20 14:48:00,73.9,66.6,29.67,SSW,207,2.0,7.0,78,0.00,CLR,SKC,0.01,WeatherDisplay:10.37,2013-05-20 19:48:00,
2013-05-20 14:58:00,73.7,66.8,29.67,SSE,148,3.0,7.0,79,0.00,CLR,SKC,0.01,WeatherDisplay:10.37,2013-05-20 19:58:00,
2013-05-20 15:03:00,73.8,66.8,29.66,South,171,2.0,8.0,79,0.00,CLR,SKC,0.01,WeatherDisplay:10.37,2013-05-20 20:03:00,
2013-05-20 15:08:00,74.0,67.4,29.65,SE,146,2.0,8.0,80,0.00,CLR,SKC,0.01,WeatherDisplay:10.37,2013-05-20 20:08:00,
2013-05-20 15:13:00,74.8,67.8,29.66,SSE,150,2.0,5.0,79,0.00,CLR,SKC,0.01,WeatherDisplay:10.37,2013-05-20 20:13:00,
2013-05-20 15:18:00,75.6,68.6,29.65,SSW,195,0.0,5.0,79,0.00,CLR,SKC,0.01,WeatherDisplay:10.37,2013-05-20 20:18:00,
2013-05-20 15:28:00,77.2,68.7,29.66,SSW,209,2.0,10.0,75,0.00,CLR,SKC,0.01,WeatherDisplay:10.37,2013-05-20 20:28:00,
2013-05-20 15:38:00,78.8,69.4,29.63,SSW,211,1.0,5.0,73,0.00,CLR,SKC,0.01,WeatherDisplay:10.37,2013-05-20 20:38:00,
2013-05-20 15:43:00,79.1,68.9,29.63,SSW,194,6.0,8.0,71,0.00,CLR,SKC,0.01,WeatherDisplay:10.37,2013-05-20 20:43:00,
2013-05-20 15:49:00,78.9,69.5,29.63,South,169,8.0,13.0,73,0.00,CLR,SKC,0.01,WeatherDisplay:10.37,2013-05-20 20:49:00,
2013-05-20 15:58:00,78.2,69.2,29.63,SSE,147,3.0,12.0,74,0.00,CLR,SKC,0.01,WeatherDisplay:10.37,2013-05-20 20:58:00,
2013-05-20 16:03:00,78.1,69.2,29.62,SE,129,3.0,12.0,74,0.00,CLR,SKC,0.01,WeatherDisplay:10.37,2013-05-20 21:03:00,
2013-05-20 16:08:00,78.1,69.5,29.62,SE,135,1.0,12.0,75,0.00,CLR,SKC,0.01,WeatherDisplay:10.37,2013-05-20 21:08:00,
2013-05-20 16:18:00,78.5,69.5,29.62,ESE,122,3.0,13.0,74,0.00,CLR,SKC,0.01,WeatherDisplay:10.37,2013-05-20 21:18:00,
2013-05-20 16:23:00,78.3,69.7,29.62,SE,129,2.0,3.0,75,0.00,CLR,SKC,0.01,WeatherDisplay:10.37,2013-05-20 21:23:00,
2013-05-20 16:28:00,78.1,69.6,29.62,SSE,163,2.0,7.0,75,0.00,CLR,SKC,0.01,WeatherDisplay:10.37,2013-05-20 21:28:00,
2013-05-20 16:38:00,77.3,69.1,29.61,SSE,161,6.0,8.0,76,0.00,CLR,SKC,0.01,WeatherDisplay:10.37,2013-05-20 21:38:00,
2013-05-20 16:48:00,77.8,68.9,29.61,SSE,153,6.0,10.0,74,0.00,CLR,SKC,0.01,WeatherDisplay:10.37,2013-05-20 21:48:00,
2013-05-20 16:53:00,78.3,69.3,29.61,SSE,165,2.0,7.0,74,0.00,CLR,SKC,0.01,WeatherDisplay:10.37,2013-05-20 21:53:00,
2013-05-20 16:58:00,78.9,69.9,29.62,South,178,3.0,10.0,74,0.00,CLR,SKC,0.01,WeatherDisplay:10.37,2013-05-20 21:58:00,
2013-05-20 17:03:00,78.9,69.9,29.62,South,190,3.0,10.0,74,0.00,CLR,SKC,0.01,WeatherDisplay:10.37,2013-05-20 22:03:00,
2013-05-20 17:08:00,79.0,69.2,29.62,SSW,198,6.0,12.0,72,0.00,CLR,SKC,0.01,WeatherDisplay:10.37,2013-05-20 22:08:00,
2013-05-20 17:18:00,79.6,70.1,29.61,SSW,197,1.0,5.0,73,0.00,CLR,SKC,0.01,WeatherDisplay:10.37,2013-05-20 22:18:00,
2013-05-20 17:28:00,80.1,69.0,29.61,South,183,5.0,10.0,69,0.00,CLR,SKC,0.01,WeatherDisplay:10.37,2013-05-20 22:28:00,
2013-05-20 17:38:00,80.3,68.7,29.61,SSE,158,2.0,5.0,68,0.00,CLR,SKC,0.01,WeatherDisplay:10.37,2013-05-20 22:38:00,
2013-05-20 17:48:00,80.2,69.1,29.61,South,186,1.0,8.0,69,0.00,CLR,SKC,0.01,WeatherDisplay:10.37,2013-05-20 22:48:00,
2013-05-20 17:58:00,79.9,68.8,29.60,South,186,1.0,8.0,69,0.00,CLR,SKC,0.01,WeatherDisplay:10.37,2013-05-20 22:58:00,
2013-05-20 18:03:00,79.7,69.1,29.60,SSW,201,0.0,2.0,70,0.00,CLR,SKC,0.01,WeatherDisplay:10.37,2013-05-20 23:03:00,
2013-05-20 18:08:00,79.5,68.9,29.60,SSW,200,3.0,7.0,70,0.00,CLR,SKC,0.01,WeatherDisplay:10.37,2013-05-20 23:08:00,
2013-05-20 18:18:00,79.1,68.5,29.60,SSW,205,3.0,8.0,70,0.00,CLR,SKC,0.01,WeatherDisplay:10.37,2013-05-20 23:18:00,
2013-05-20 18:28:00,78.8,68.2,29.60,SW,218,0.0,3.0,70,0.00,CLR,SKC,0.01,WeatherDisplay:10.37,2013-05-20 23:28:00,
2013-05-20 18:33:00,78.8,68.2,29.61,SSW,194,3.0,8.0,70,0.00,CLR,SKC,0.01,WeatherDisplay:10.37,2013-05-20 23:33:00,
2013-05-20 18:38:00,78.7,68.1,29.61,South,169,3.0,8.0,70,0.00,CLR,SKC,0.01,WeatherDisplay:10.37,2013-05-20 23:38:00,
2013-05-20 18:48:00,77.5,68.2,29.59,SSE,149,9.0,18.0,73,0.00,CLR,SKC,0.01,WeatherDisplay:10.37,2013-05-20 23:48:00,
2013-05-20 18:58:00,76.5,68.0,29.59,SSE,157,5.0,10.0,75,0.00,CLR,SKC,0.01,WeatherDisplay:10.37,2013-05-20 23:58:00,
2013-05-20 19:03:00,76.2,68.4,29.59,SE,141,3.0,12.0,77,0.00,CLR,SKC,0.01,WeatherDisplay:10.37,2013-05-21 00:03:00,
2013-05-20 19:08:00,75.9,68.5,29.59,SSE,150,3.0,10.0,78,0.00,CLR,SKC,0.01,WeatherDisplay:10.37,2013-05-21 00:08:00,
2013-05-20 19:18:00,75.2,69.0,29.60,SSE,165,7.0,16.0,81,0.00,CLR,SKC,0.01,WeatherDisplay:10.37,2013-05-21 00:18:00,
2013-05-20 19:28:00,74.8,69.0,29.60,SSW,192,8.0,13.0,82,0.00,CLR,SKC,0.01,WeatherDisplay:10.37,2013-05-21 00:28:00,
2013-05-20 19:38:00,74.3,68.8,29.60,SSE,158,3.0,13.0,83,0.00,CLR,SKC,0.01,WeatherDisplay:10.37,2013-05-21 00:38:00,
2013-05-20 19:48:00,73.8,68.3,29.60,SSW,203,9.0,20.0,83,0.00,CLR,SKC,0.01,WeatherDisplay:10.37,2013-05-21 00:48:00,
2013-05-20 19:53:00,73.3,68.1,29.60,SSW,197,7.0,13.0,84,0.00,CLR,SKC,0.01,WeatherDisplay:10.37,2013-05-21 00:53:00,
2013-05-20 19:58:00,72.9,68.1,29.60,SSW,211,2.0,13.0,85,0.00,CLR,SKC,0.01,WeatherDisplay:10.37,2013-05-21 00:58:00,
2013-05-20 20:03:00,72.7,67.9,29.60,SW,228,3.0,14.0,85,0.00,CLR,SKC,0.01,WeatherDisplay:10.37,2013-05-21 01:03:00,
2013-05-20 20:08:00,72.4,67.7,29.60,SSW,200,2.0,10.0,85,0.00,CLR,SKC,0.01,WeatherDisplay:10.37,2013-05-21 01:08:00,
2013-05-20 20:18:00,72.2,67.7,29.60,WSW,251,1.0,3.0,86,0.00,CLR,SKC,0.01,WeatherDisplay:10.37,2013-05-21 01:18:00,
2013-05-20 20:23:00,72.1,67.7,29.60,SW,232,0.0,3.0,86,0.00,CLR,SKC,0.01,WeatherDisplay:10.37,2013-05-21 01:23:00,
2013-05-20 20:28:00,72.0,67.6,29.60,WSW,238,0.0,7.0,86,0.00,CLR,SKC,0.01,WeatherDisplay:10.37,2013-05-21 01:28:00,
2013-05-20 20:33:00,71.9,67.5,29.60,WSW,238,2.0,8.0,86,0.00,CLR,SKC,0.01,WeatherDisplay:10.37,2013-05-21 01:33:00,
2013-05-20 20:38:00,71.8,67.4,29.60,WSW,242,2.0,7.0,86,0.00,CLR,SKC,0.01,WeatherDisplay:10.37,2013-05-21 01:38:00,
2013-05-20 20:43:00,71.7,67.3,29.60,WSW,239,2.0,8.0,86,0.00,CLR,SKC,0.01,WeatherDisplay:10.37,2013-05-21 01:43:00,
2013-05-20 20:48:00,71.6,67.2,29.60,SW,230,3.0,7.0,86,0.00,CLR,SKC,0.01,WeatherDisplay:10.37,2013-05-21 01:48:00,
2013-05-20 20:58:00,71.3,67.3,29.61,SW,230,0.0,3.0,87,0.00,CLR,SKC,0.01,WeatherDisplay:10.37,2013-05-21 01:58:00,
2013-05-20 21:03:00,71.2,67.2,29.61,South,188,0.0,5.0,87,0.00,CLR,SKC,0.01,WeatherDisplay:10.37,2013-05-21 02:03:00,
2013-05-20 21:08:00,71.1,67.1,29.61,SSE,154,0.0,2.0,87,0.00,CLR,SKC,0.01,WeatherDisplay:10.37,2013-05-21 02:08:00,
2013-05-20 21:13:00,71.0,67.3,29.61,WSW,242,0.0,5.0,88,0.00,CLR,SKC,0.01,WeatherDisplay:10.37,2013-05-21 02:13:00,
2013-05-20 21:18:00,70.9,67.2,29.61,West,271,1.0,2.0,88,0.00,CLR,SKC,0.01,WeatherDisplay:10.37,2013-05-21 02:18:00,
2013-05-20 21:28:00,70.7,67.3,29.62,SW,223,0.0,3.0,89,0.00,CLR,SKC,0.01,WeatherDisplay:10.37,2013-05-21 02:28:00,
2013-05-20 21:38:00,70.5,67.1,29.62,WSW,238,0.0,5.0,89,0.00,CLR,SKC,0.01,WeatherDisplay:10.37,2013-05-21 02:38:00,
2013-05-20 21:43:00,70.4,67.3,29.63,WSW,244,0.0,5.0,90,0.00,CLR,SKC,0.01,WeatherDisplay:10.37,2013-05-21 02:43:00,
2013-05-20 21:48:00,70.3,67.2,29.63,WSW,238,3.0,10.0,90,0.00,CLR,SKC,0.01,WeatherDisplay:10.37,2013-05-21 02:48:00,
2013-05-20 21:58:00,70.1,67.0,29.64,WSW,244,1.0,8.0,90,0.00,CLR,SKC,0.01,WeatherDisplay:10.37,2013-05-21 02:58:00,
2013-05-20 22:03:00,70.0,67.0,29.64,SW,229,3.0,7.0,90,0.00,CLR,SKC,0.01,WeatherDisplay:10.37,2013-05-21 03:03:00,
2013-05-20 22:08:00,69.8,66.8,29.64,SSW,205,1.0,5.0,90,0.00,CLR,SKC,0.01,WeatherDisplay:10.37,2013-05-21 03:08:00,
2013-05-20 22:18:00,69.4,66.6,29.65,South,184,0.0,5.0,91,0.00,CLR,SKC,0.01,WeatherDisplay:10.37,2013-05-21 03:18:00,
2013-05-20 22:28:00,69.0,66.2,29.65,West,261,1.0,3.0,91,0.00,CLR,SKC,0.01,WeatherDisplay:10.37,2013-05-21 03:28:00,
2013-05-20 22:33:00,68.8,66.1,29.66,WSW,237,0.0,3.0,91,0.00,CLR,SKC,0.01,WeatherDisplay:10.37,2013-05-21 03:33:00,
2013-05-20 22:38:00,68.8,65.7,29.66,SW,229,1.0,5.0,90,0.00,CLR,SKC,0.01,WeatherDisplay:10.37,2013-05-21 03:38:00,
2013-05-20 22:48:00,68.4,65.4,29.66,SSW,194,1.0,5.0,90,0.00,CLR,SKC,0.01,WeatherDisplay:10.37,2013-05-21 03:48:00,
2013-05-20 22:58:00,68.0,65.3,29.67,South,172,2.0,3.0,91,0.00,CLR,SKC,0.01,WeatherDisplay:10.37,2013-05-21 03:58:00,
2013-05-20 23:03:00,67.8,65.1,29.66,South,173,0.0,3.0,91,0.00,CLR,SKC,0.01,WeatherDisplay:10.37,2013-05-21 04:03:00,
2013-05-20 23:08:00,67.7,64.9,29.66,SSW,202,1.0,3.0,91,0.00,CLR,SKC,0.01,WeatherDisplay:10.37,2013-05-21 04:08:00,
2013-05-20 23:13:00,67.4,64.7,29.66,SSW,205,0.0,3.0,91,0.00,CLR,SKC,0.01,WeatherDisplay:10.37,2013-05-21 04:13:00,
2013-05-20 23:18:00,67.3,64.6,29.65,SSW,199,0.0,3.0,91,0.00,CLR,SKC,0.01,WeatherDisplay:10.37,2013-05-21 04:18:00,
2013-05-20 23:28:00,66.9,64.5,29.65,SW,225,0.0,5.0,92,0.00,CLR,SKC,0.01,WeatherDisplay:10.37,2013-05-21 04:28:00,
2013-05-20 23:33:00,66.7,64.3,29.65,SW,233,0.0,2.0,92,0.00,CLR,SKC,0.01,WeatherDisplay:10.37,2013-05-21 04:33:00,
2013-05-20 23:38:00,66.7,64.3,29.65,West,277,0.0,5.0,92,0.00,CLR,SKC,0.01,WeatherDisplay:10.37,2013-05-21 04:38:00,
2013-05-20 23:48:00,66.9,64.2,29.65,WSW,254,0.0,2.0,91,0.00,CLR,SKC,0.01,WeatherDisplay:10.37,2013-05-21 04:48:00,
2013-05-20 23:58:00,66.8,63.8,29.65,West,272,0.0,3.0,90,0.00,RA,SKC,0.00,WeatherDisplay:10.37,2013-05-21 04:58:00,